CAL187 RKPK-RCTP
Flight info
| Callsign | CAL187 |
|---|---|
| Flight time | 2h 19m |
| Altitude | 38000 |
| Route | OPONO3 ENGOT Y572 CJU Z82 PANSI Y711 MUGUS Y742 SALMI B576 BAKER BAKER1A |
| Aircraft | B738/M-ABDE3FGJ3J4LOP1RVWY/LB2 |
Departure
| Time | 2026-05-08 12:36 |
|---|---|
| Airport | Gimhae International Airport (RKPK) |
Arrival
| Time | 2026-05-08 14:55 |
|---|---|
| Airport | Taiwan Taoyuan International Airport (RCTP) |
| Time | Latitude | Longitude | Altitude | Speed | Heading |
|---|---|---|---|---|---|
| 2026-05-08 12:08 | 35.17175 | 128.94571 | 18 ft | 0 kts | 89° |
| 2026-05-08 12:28 | 35.17175 | 128.94566 | 18 ft | 2 kts | 90° |
| 2026-05-08 12:28 | 35.17175 | 128.94548 | 18 ft | 2 kts | 89° |
| 2026-05-08 12:28 | 35.17175 | 128.94530 | 18 ft | 2 kts | 89° |
| 2026-05-08 12:28 | 35.17175 | 128.94511 | 18 ft | 2 kts | 90° |
| 2026-05-08 12:29 | 35.17176 | 128.94493 | 18 ft | 2 kts | 124° |
| 2026-05-08 12:29 | 35.17188 | 128.94482 | 18 ft | 2 kts | 164° |
| 2026-05-08 12:29 | 35.17203 | 128.94481 | 18 ft | 2 kts | 177° |
| 2026-05-08 12:29 | 35.17210 | 128.94479 | 18 ft | 0 kts | 171° |
| 2026-05-08 12:30 | 35.17209 | 128.94479 | 18 ft | 0 kts | 171° |
| 2026-05-08 12:31 | 35.17207 | 128.94481 | 18 ft | 1 kts | 173° |
| 2026-05-08 12:31 | 35.17195 | 128.94482 | 18 ft | 2 kts | 174° |
| 2026-05-08 12:32 | 35.17177 | 128.94484 | 18 ft | 2 kts | 174° |
| 2026-05-08 12:32 | 35.17153 | 128.94487 | 18 ft | 3 kts | 175° |
| 2026-05-08 12:32 | 35.17124 | 128.94490 | 18 ft | 4 kts | 174° |
| 2026-05-08 12:32 | 35.17092 | 128.94488 | 18 ft | 5 kts | 214° |
| 2026-05-08 12:33 | 35.17081 | 128.94435 | 18 ft | 7 kts | 264° |
| 2026-05-08 12:33 | 35.17073 | 128.94356 | 17 ft | 10 kts | 253° |
| 2026-05-08 12:33 | 35.17014 | 128.94312 | 15 ft | 10 kts | 190° |
| 2026-05-08 12:33 | 35.16980 | 128.94260 | 16 ft | 7 kts | 260° |
| 2026-05-08 12:34 | 35.16975 | 128.94208 | 17 ft | 4 kts | 264° |
| 2026-05-08 12:34 | 35.16973 | 128.94174 | 17 ft | 4 kts | 264° |
| 2026-05-08 12:34 | 35.16967 | 128.94116 | 17 ft | 9 kts | 263° |
| 2026-05-08 12:34 | 35.16983 | 128.94055 | 18 ft | 7 kts | 348° |
| 2026-05-08 12:35 | 35.17061 | 128.94046 | 18 ft | 19 kts | 354° |
| 2026-05-08 12:35 | 35.17431 | 128.93997 | 18 ft | 88 kts | 353° |
| 2026-05-08 12:35 | 35.18266 | 128.93892 | 25 ft | 147 kts | 352° |
| 2026-05-08 12:35 | 35.19356 | 128.93749 | 310 ft | 157 kts | 353° |
| 2026-05-08 12:36 | 35.20425 | 128.93573 | 799 ft | 159 kts | 341° |
| 2026-05-08 12:36 | 35.21300 | 128.92760 | 1263 ft | 162 kts | 305° |
| 2026-05-08 12:36 | 35.21890 | 128.91600 | 1776 ft | 166 kts | 303° |
| 2026-05-08 12:36 | 35.22493 | 128.90335 | 2174 ft | 179 kts | 303° |
| 2026-05-08 12:37 | 35.23160 | 128.88982 | 2495 ft | 199 kts | 304° |
| 2026-05-08 12:37 | 35.23877 | 128.87479 | 2937 ft | 214 kts | 303° |
| 2026-05-08 12:37 | 35.24647 | 128.85838 | 3406 ft | 229 kts | 302° |
| 2026-05-08 12:37 | 35.25420 | 128.84146 | 4155 ft | 230 kts | 302° |
| 2026-05-08 12:38 | 35.26200 | 128.82440 | 4801 ft | 233 kts | 303° |
| 2026-05-08 12:38 | 35.27002 | 128.80693 | 5007 ft | 235 kts | 303° |
| 2026-05-08 12:38 | 35.27799 | 128.78986 | 5009 ft | 232 kts | 303° |
| 2026-05-08 12:38 | 35.28615 | 128.77252 | 5020 ft | 233 kts | 303° |
| 2026-05-08 12:39 | 35.29322 | 128.75468 | 5019 ft | 236 kts | 292° |
| 2026-05-08 12:39 | 35.29464 | 128.73451 | 5011 ft | 244 kts | 264° |
| 2026-05-08 12:39 | 35.28873 | 128.71445 | 5033 ft | 265 kts | 246° |
| 2026-05-08 12:39 | 35.27725 | 128.69594 | 5024 ft | 278 kts | 227° |
| 2026-05-08 12:40 | 35.26232 | 128.68092 | 5038 ft | 282 kts | 223° |
| 2026-05-08 12:40 | 35.24741 | 128.66521 | 5020 ft | 278 kts | 226° |
| 2026-05-08 12:40 | 35.23296 | 128.64932 | 5007 ft | 280 kts | 226° |
| 2026-05-08 12:40 | 35.21872 | 128.63332 | 5034 ft | 280 kts | 227° |
| 2026-05-08 12:41 | 35.20461 | 128.61716 | 5018 ft | 278 kts | 227° |
| 2026-05-08 12:41 | 35.19041 | 128.60078 | 5035 ft | 279 kts | 227° |
| 2026-05-08 12:41 | 35.17632 | 128.58472 | 5030 ft | 280 kts | 226° |
| 2026-05-08 12:41 | 35.16185 | 128.56876 | 5012 ft | 279 kts | 225° |
| 2026-05-08 12:42 | 35.14713 | 128.55292 | 5041 ft | 279 kts | 225° |
| 2026-05-08 12:42 | 35.13216 | 128.53749 | 5020 ft | 284 kts | 221° |
| 2026-05-08 12:42 | 35.11454 | 128.52644 | 5063 ft | 297 kts | 195° |
| 2026-05-08 12:42 | 35.09397 | 128.52348 | 5901 ft | 295 kts | 183° |
| 2026-05-08 12:43 | 35.07363 | 128.52316 | 6577 ft | 299 kts | 181° |
| 2026-05-08 12:43 | 35.05267 | 128.52257 | 7269 ft | 303 kts | 185° |
| 2026-05-08 12:43 | 35.03135 | 128.52097 | 7902 ft | 309 kts | 187° |
| 2026-05-08 12:43 | 35.00984 | 128.51891 | 8627 ft | 312 kts | 188° |
| 2026-05-08 12:44 | 34.98801 | 128.51659 | 9341 ft | 316 kts | 190° |
| 2026-05-08 12:44 | 34.96624 | 128.51404 | 10027 ft | 321 kts | 191° |
| 2026-05-08 12:44 | 34.94353 | 128.51141 | 10587 ft | 331 kts | 190° |
| 2026-05-08 12:44 | 34.92017 | 128.50903 | 11038 ft | 346 kts | 189° |
| 2026-05-08 12:45 | 34.89578 | 128.50681 | 11653 ft | 354 kts | 190° |
| 2026-05-08 12:45 | 34.87063 | 128.50429 | 11919 ft | 373 kts | 190° |
| 2026-05-08 12:45 | 34.84421 | 128.50113 | 12485 ft | 381 kts | 194° |
| 2026-05-08 12:45 | 34.81897 | 128.49381 | 13305 ft | 373 kts | 207° |
| 2026-05-08 12:46 | 34.79665 | 128.47893 | 14101 ft | 359 kts | 226° |
| 2026-05-08 12:46 | 34.77971 | 128.45761 | 14900 ft | 351 kts | 237° |
| 2026-05-08 12:46 | 34.76426 | 128.43518 | 15857 ft | 348 kts | 238° |
| 2026-05-08 12:46 | 34.74845 | 128.41264 | 16644 ft | 350 kts | 237° |
| 2026-05-08 12:47 | 34.73247 | 128.39029 | 17392 ft | 352 kts | 237° |
| 2026-05-08 12:47 | 34.71655 | 128.36839 | 18241 ft | 349 kts | 237° |
| 2026-05-08 12:47 | 34.70044 | 128.34637 | 18869 ft | 353 kts | 236° |
| 2026-05-08 12:47 | 34.68420 | 128.32419 | 19616 ft | 354 kts | 236° |
| 2026-05-08 12:48 | 34.66779 | 128.30183 | 20411 ft | 352 kts | 236° |
| 2026-05-08 12:48 | 34.65160 | 128.27942 | 20986 ft | 355 kts | 236° |
| 2026-05-08 12:48 | 34.63543 | 128.25679 | 21679 ft | 355 kts | 236° |
| 2026-05-08 12:48 | 34.61926 | 128.23413 | 22276 ft | 357 kts | 236° |
| 2026-05-08 12:49 | 34.60324 | 128.21178 | 22968 ft | 355 kts | 236° |
| 2026-05-08 12:49 | 34.58690 | 128.18900 | 23490 ft | 358 kts | 236° |
| 2026-05-08 12:49 | 34.57067 | 128.16644 | 24026 ft | 360 kts | 236° |
| 2026-05-08 12:49 | 34.55409 | 128.14348 | 24565 ft | 362 kts | 236° |
| 2026-05-08 12:50 | 34.53752 | 128.12056 | 25048 ft | 365 kts | 236° |
| 2026-05-08 12:50 | 34.52091 | 128.09764 | 25664 ft | 364 kts | 236° |
| 2026-05-08 12:50 | 34.50411 | 128.07448 | 26202 ft | 365 kts | 236° |
| 2026-05-08 12:50 | 34.48737 | 128.05142 | 26652 ft | 368 kts | 236° |
| 2026-05-08 12:51 | 34.47032 | 128.02794 | 27171 ft | 369 kts | 236° |
| 2026-05-08 12:51 | 34.43642 | 127.98132 | 28063 ft | 373 kts | 236° |
| 2026-05-08 12:51 | 34.41936 | 127.95792 | 28611 ft | 372 kts | 237° |
| 2026-05-08 12:52 | 34.40236 | 127.93459 | 29048 ft | 374 kts | 236° |
| 2026-05-08 12:52 | 34.36767 | 127.88693 | 29755 ft | 381 kts | 236° |
| 2026-05-08 12:52 | 34.35012 | 127.86288 | 30363 ft | 379 kts | 236° |
| 2026-05-08 12:53 | 34.33256 | 127.83882 | 30626 ft | 385 kts | 236° |
| 2026-05-08 12:53 | 34.31465 | 127.81427 | 30966 ft | 388 kts | 236° |
| 2026-05-08 12:53 | 34.29686 | 127.78999 | 31584 ft | 385 kts | 236° |
| 2026-05-08 12:53 | 34.27936 | 127.76616 | 32254 ft | 380 kts | 236° |
| 2026-05-08 12:54 | 34.26169 | 127.74211 | 32823 ft | 377 kts | 235° |
| 2026-05-08 12:54 | 34.24435 | 127.71851 | 33344 ft | 375 kts | 236° |
| 2026-05-08 12:54 | 34.22712 | 127.69502 | 33700 ft | 375 kts | 236° |
| 2026-05-08 12:54 | 34.20993 | 127.67158 | 34032 ft | 375 kts | 236° |
| 2026-05-08 12:55 | 34.19269 | 127.64812 | 34343 ft | 376 kts | 236° |
| 2026-05-08 12:55 | 34.17533 | 127.62451 | 34676 ft | 376 kts | 236° |
| 2026-05-08 12:55 | 34.15787 | 127.60076 | 35043 ft | 374 kts | 236° |
| 2026-05-08 12:55 | 34.14069 | 127.57746 | 35365 ft | 374 kts | 236° |
| 2026-05-08 12:56 | 34.12356 | 127.55418 | 35605 ft | 376 kts | 237° |
| 2026-05-08 12:56 | 34.10597 | 127.53030 | 35912 ft | 376 kts | 237° |
| 2026-05-08 12:56 | 34.08871 | 127.50687 | 36312 ft | 375 kts | 237° |
| 2026-05-08 12:56 | 34.07139 | 127.48342 | 36675 ft | 375 kts | 237° |
| 2026-05-08 12:57 | 34.05415 | 127.46010 | 37029 ft | 374 kts | 237° |
| 2026-05-08 12:57 | 34.03696 | 127.43684 | 37306 ft | 374 kts | 237° |
| 2026-05-08 12:57 | 34.01953 | 127.41330 | 37567 ft | 375 kts | 237° |
| 2026-05-08 12:57 | 34.00215 | 127.38983 | 37841 ft | 375 kts | 237° |
| 2026-05-08 12:58 | 33.98477 | 127.36636 | 38060 ft | 376 kts | 237° |
| 2026-05-08 12:58 | 33.96746 | 127.34296 | 38115 ft | 377 kts | 237° |
| 2026-05-08 12:58 | 33.93278 | 127.29623 | 38110 ft | 373 kts | 236° |
| 2026-05-08 12:59 | 33.89826 | 127.24976 | 38116 ft | 373 kts | 237° |
| 2026-05-08 12:59 | 33.86342 | 127.20283 | 38117 ft | 375 kts | 237° |
| 2026-05-08 13:00 | 33.82869 | 127.15614 | 38129 ft | 375 kts | 237° |
| 2026-05-08 13:00 | 33.79402 | 127.10963 | 38122 ft | 374 kts | 237° |
| 2026-05-08 13:01 | 33.75911 | 127.06290 | 38131 ft | 378 kts | 237° |
| 2026-05-08 13:01 | 33.72417 | 127.01620 | 38145 ft | 377 kts | 237° |
| 2026-05-08 13:02 | 33.68927 | 126.96961 | 38135 ft | 374 kts | 237° |
| 2026-05-08 13:02 | 33.65443 | 126.92313 | 38159 ft | 377 kts | 236° |
| 2026-05-08 13:03 | 33.61663 | 126.87849 | 38141 ft | 383 kts | 232° |
| 2026-05-08 13:03 | 33.57713 | 126.83560 | 38130 ft | 384 kts | 231° |
| 2026-05-08 13:04 | 33.53755 | 126.79263 | 38120 ft | 384 kts | 232° |
| 2026-05-08 13:04 | 33.49824 | 126.74962 | 38125 ft | 383 kts | 232° |
| 2026-05-08 13:05 | 33.45880 | 126.70621 | 38137 ft | 386 kts | 232° |
| 2026-05-08 13:05 | 33.41953 | 126.66299 | 38136 ft | 385 kts | 232° |
| 2026-05-08 13:06 | 33.37983 | 126.61925 | 38150 ft | 385 kts | 232° |
| 2026-05-08 13:06 | 33.34047 | 126.57586 | 38137 ft | 385 kts | 232° |
| 2026-05-08 13:07 | 33.30130 | 126.53275 | 38147 ft | 386 kts | 232° |
| 2026-05-08 13:07 | 33.26164 | 126.48913 | 38140 ft | 387 kts | 232° |
| 2026-05-08 13:08 | 33.22203 | 126.44566 | 38149 ft | 389 kts | 232° |
| 2026-05-08 13:08 | 33.18227 | 126.40208 | 38144 ft | 388 kts | 232° |
| 2026-05-08 13:09 | 33.14238 | 126.35841 | 38150 ft | 389 kts | 232° |
| 2026-05-08 13:09 | 33.10262 | 126.31491 | 38142 ft | 389 kts | 232° |
| 2026-05-08 13:10 | 33.06263 | 126.27129 | 38143 ft | 389 kts | 231° |
| 2026-05-08 13:10 | 33.02230 | 126.22840 | 38148 ft | 394 kts | 229° |
| 2026-05-08 13:11 | 32.99981 | 126.20923 | 38150 ft | 406 kts | 221° |
| 2026-05-08 13:11 | 32.97434 | 126.19352 | 38147 ft | 416 kts | 215° |
| 2026-05-08 13:11 | 32.92022 | 126.16876 | 38152 ft | 418 kts | 211° |
| 2026-05-08 13:12 | 32.86431 | 126.14580 | 38183 ft | 425 kts | 211° |
| 2026-05-08 13:12 | 32.80854 | 126.12271 | 38104 ft | 422 kts | 211° |
| 2026-05-08 13:13 | 32.75329 | 126.09954 | 38150 ft | 420 kts | 211° |
| 2026-05-08 13:13 | 32.69855 | 126.07629 | 38155 ft | 422 kts | 211° |
| 2026-05-08 13:14 | 32.64332 | 126.05276 | 38158 ft | 420 kts | 211° |
| 2026-05-08 13:14 | 32.58811 | 126.02924 | 38159 ft | 423 kts | 211° |
| 2026-05-08 13:15 | 32.53274 | 126.00571 | 38144 ft | 421 kts | 212° |
| 2026-05-08 13:15 | 32.47758 | 125.98228 | 38149 ft | 423 kts | 211° |
| 2026-05-08 13:16 | 32.42226 | 125.95881 | 38156 ft | 423 kts | 211° |
| 2026-05-08 13:16 | 32.36712 | 125.93551 | 38152 ft | 420 kts | 211° |
| 2026-05-08 13:17 | 32.31148 | 125.91194 | 38149 ft | 425 kts | 211° |
| 2026-05-08 13:17 | 32.25608 | 125.88854 | 38146 ft | 422 kts | 211° |
| 2026-05-08 13:18 | 32.20040 | 125.86507 | 38164 ft | 425 kts | 212° |
| 2026-05-08 13:18 | 32.14500 | 125.84173 | 38152 ft | 425 kts | 211° |
| 2026-05-08 13:19 | 32.08905 | 125.81825 | 38158 ft | 425 kts | 211° |
| 2026-05-08 13:19 | 32.03320 | 125.79475 | 38149 ft | 427 kts | 211° |
| 2026-05-08 13:20 | 31.97746 | 125.77148 | 38160 ft | 421 kts | 211° |
| 2026-05-08 13:20 | 31.92236 | 125.74830 | 38162 ft | 424 kts | 211° |
| 2026-05-08 13:21 | 31.86664 | 125.72479 | 38160 ft | 426 kts | 211° |
| 2026-05-08 13:21 | 31.81062 | 125.70128 | 38165 ft | 427 kts | 212° |
| 2026-05-08 13:22 | 31.75516 | 125.67806 | 38168 ft | 423 kts | 211° |
| 2026-05-08 13:22 | 31.69963 | 125.65484 | 38163 ft | 426 kts | 211° |
| 2026-05-08 13:23 | 31.64375 | 125.63145 | 38161 ft | 427 kts | 212° |
| 2026-05-08 13:23 | 31.58803 | 125.60815 | 38165 ft | 426 kts | 211° |
| 2026-05-08 13:24 | 31.53155 | 125.58452 | 38162 ft | 427 kts | 212° |
| 2026-05-08 13:24 | 31.47624 | 125.56147 | 38163 ft | 423 kts | 212° |
| 2026-05-08 13:25 | 31.42018 | 125.53792 | 38168 ft | 427 kts | 212° |
| 2026-05-08 13:25 | 31.36461 | 125.51462 | 38166 ft | 426 kts | 212° |
| 2026-05-08 13:26 | 31.30836 | 125.49112 | 38161 ft | 427 kts | 212° |
| 2026-05-08 13:26 | 31.25276 | 125.46793 | 38168 ft | 427 kts | 211° |
| 2026-05-08 13:27 | 31.19671 | 125.44460 | 38158 ft | 426 kts | 212° |
| 2026-05-08 13:27 | 31.14093 | 125.42139 | 38162 ft | 425 kts | 212° |
| 2026-05-08 13:28 | 31.08478 | 125.39801 | 38166 ft | 427 kts | 212° |
| 2026-05-08 13:28 | 31.02887 | 125.37485 | 38164 ft | 427 kts | 211° |
| 2026-05-08 13:29 | 30.97285 | 125.35167 | 38158 ft | 426 kts | 212° |
| 2026-05-08 13:29 | 30.91685 | 125.32845 | 38164 ft | 432 kts | 211° |
| 2026-05-08 13:30 | 30.86021 | 125.30503 | 38157 ft | 428 kts | 211° |
| 2026-05-08 13:30 | 30.80395 | 125.28179 | 38156 ft | 431 kts | 211° |
| 2026-05-08 13:31 | 30.74713 | 125.25837 | 38148 ft | 431 kts | 211° |
| 2026-05-08 13:31 | 30.69098 | 125.23531 | 38144 ft | 429 kts | 211° |
| 2026-05-08 13:32 | 30.63422 | 125.21192 | 38155 ft | 433 kts | 211° |
| 2026-05-08 13:32 | 30.57755 | 125.18867 | 38154 ft | 429 kts | 211° |
| 2026-05-08 13:33 | 30.52128 | 125.16557 | 38159 ft | 433 kts | 211° |
| 2026-05-08 13:33 | 30.46449 | 125.14232 | 38150 ft | 430 kts | 211° |
| 2026-05-08 13:34 | 30.40790 | 125.11910 | 38160 ft | 433 kts | 211° |
| 2026-05-08 13:34 | 30.35122 | 125.09591 | 38153 ft | 431 kts | 212° |
| 2026-05-08 13:35 | 30.29427 | 125.07263 | 38175 ft | 435 kts | 211° |
| 2026-05-08 13:35 | 30.23738 | 125.04947 | 38167 ft | 431 kts | 211° |
| 2026-05-08 13:36 | 30.18074 | 125.02638 | 38164 ft | 433 kts | 212° |
| 2026-05-08 13:36 | 30.12379 | 125.00316 | 38170 ft | 435 kts | 212° |
| 2026-05-08 13:37 | 30.06692 | 124.98003 | 38169 ft | 433 kts | 212° |
| 2026-05-08 13:37 | 30.00960 | 124.95676 | 38173 ft | 437 kts | 212° |
| 2026-05-08 13:38 | 29.95270 | 124.93315 | 38173 ft | 434 kts | 212° |
| 2026-05-08 13:38 | 29.89621 | 124.90896 | 38172 ft | 433 kts | 213° |
| 2026-05-08 13:39 | 29.83963 | 124.88464 | 38169 ft | 434 kts | 213° |
| 2026-05-08 13:39 | 29.78300 | 124.86033 | 38171 ft | 436 kts | 212° |
| 2026-05-08 13:40 | 29.72601 | 124.83601 | 38167 ft | 435 kts | 212° |
| 2026-05-08 13:40 | 29.66939 | 124.81193 | 38164 ft | 435 kts | 212° |
| 2026-05-08 13:41 | 29.61226 | 124.78758 | 38160 ft | 439 kts | 212° |
| 2026-05-08 13:41 | 29.55513 | 124.76339 | 38163 ft | 436 kts | 212° |
| 2026-05-08 13:42 | 29.49818 | 124.73934 | 38157 ft | 436 kts | 212° |
| 2026-05-08 13:42 | 29.44124 | 124.71526 | 38158 ft | 437 kts | 212° |
| 2026-05-08 13:43 | 29.38430 | 124.69122 | 38153 ft | 434 kts | 212° |
| 2026-05-08 13:43 | 29.32779 | 124.66733 | 38151 ft | 438 kts | 212° |
| 2026-05-08 13:44 | 29.27035 | 124.64307 | 38155 ft | 436 kts | 212° |
| 2026-05-08 13:44 | 29.21321 | 124.61905 | 38149 ft | 439 kts | 212° |
| 2026-05-08 13:45 | 29.15593 | 124.59499 | 38151 ft | 438 kts | 212° |
| 2026-05-08 13:45 | 29.09868 | 124.57095 | 38149 ft | 440 kts | 212° |
| 2026-05-08 13:46 | 29.04091 | 124.54670 | 38146 ft | 439 kts | 212° |
| 2026-05-08 13:46 | 28.98386 | 124.52241 | 38145 ft | 436 kts | 214° |
| 2026-05-08 13:47 | 28.93061 | 124.49176 | 38154 ft | 421 kts | 223° |
| 2026-05-08 13:47 | 28.88231 | 124.45499 | 38153 ft | 419 kts | 226° |
| 2026-05-08 13:48 | 28.83490 | 124.41641 | 38153 ft | 416 kts | 227° |
| 2026-05-08 13:48 | 28.78772 | 124.37792 | 38155 ft | 418 kts | 226° |
| 2026-05-08 13:49 | 28.74041 | 124.33967 | 38157 ft | 419 kts | 226° |
| 2026-05-08 13:49 | 28.69311 | 124.30170 | 38148 ft | 417 kts | 225° |
| 2026-05-08 13:50 | 28.64528 | 124.26337 | 38153 ft | 418 kts | 225° |
| 2026-05-08 13:50 | 28.59783 | 124.22545 | 38153 ft | 418 kts | 225° |
| 2026-05-08 13:51 | 28.54997 | 124.18727 | 38148 ft | 419 kts | 225° |
| 2026-05-08 13:51 | 28.50259 | 124.14954 | 38147 ft | 417 kts | 225° |
| 2026-05-08 13:52 | 28.45451 | 124.11121 | 38151 ft | 418 kts | 225° |
| 2026-05-08 13:52 | 28.40726 | 124.07368 | 38148 ft | 416 kts | 225° |
| 2026-05-08 13:53 | 28.35962 | 124.03579 | 38140 ft | 417 kts | 225° |
| 2026-05-08 13:53 | 28.31212 | 123.99814 | 38143 ft | 416 kts | 225° |
| 2026-05-08 13:54 | 28.26480 | 123.95991 | 38138 ft | 416 kts | 226° |
| 2026-05-08 13:54 | 28.21805 | 123.92172 | 38147 ft | 416 kts | 226° |
| 2026-05-08 13:55 | 28.17090 | 123.88322 | 38139 ft | 415 kts | 226° |
| 2026-05-08 13:56 | 28.10028 | 123.82577 | 38141 ft | 416 kts | 226° |
| 2026-05-08 13:56 | 28.05328 | 123.78766 | 38146 ft | 416 kts | 225° |
| 2026-05-08 13:57 | 28.00625 | 123.74953 | 38143 ft | 416 kts | 225° |
| 2026-05-08 13:57 | 27.95908 | 123.71130 | 38133 ft | 419 kts | 225° |
| 2026-05-08 13:58 | 27.91189 | 123.67314 | 38137 ft | 417 kts | 226° |
| 2026-05-08 13:58 | 27.86456 | 123.63460 | 38138 ft | 416 kts | 226° |
| 2026-05-08 13:59 | 27.81762 | 123.59642 | 38142 ft | 418 kts | 226° |
| 2026-05-08 13:59 | 27.77034 | 123.55795 | 38139 ft | 419 kts | 226° |
| 2026-05-08 14:00 | 27.72274 | 123.51934 | 38143 ft | 417 kts | 226° |
| 2026-05-08 14:00 | 27.67555 | 123.48110 | 38134 ft | 418 kts | 226° |
| 2026-05-08 14:01 | 27.62797 | 123.44257 | 38137 ft | 419 kts | 226° |
| 2026-05-08 14:01 | 27.58069 | 123.40434 | 38145 ft | 420 kts | 226° |
| 2026-05-08 14:02 | 27.53313 | 123.36591 | 38138 ft | 419 kts | 226° |
| 2026-05-08 14:02 | 27.48573 | 123.32763 | 38133 ft | 421 kts | 225° |
| 2026-05-08 14:03 | 27.43827 | 123.28937 | 38137 ft | 419 kts | 225° |
| 2026-05-08 14:03 | 27.39059 | 123.25101 | 38138 ft | 421 kts | 225° |
| 2026-05-08 14:04 | 27.34292 | 123.21270 | 38136 ft | 420 kts | 225° |
| 2026-05-08 14:04 | 27.29517 | 123.17437 | 38132 ft | 421 kts | 225° |
| 2026-05-08 14:05 | 27.24765 | 123.13618 | 38134 ft | 422 kts | 225° |
| 2026-05-08 14:05 | 27.19931 | 123.09742 | 38129 ft | 421 kts | 225° |
| 2026-05-08 14:06 | 27.15168 | 123.05932 | 38139 ft | 422 kts | 225° |
| 2026-05-08 14:06 | 27.10380 | 123.02102 | 38139 ft | 423 kts | 225° |
| 2026-05-08 14:07 | 27.05574 | 122.98259 | 38136 ft | 423 kts | 225° |
| 2026-05-08 14:07 | 27.00774 | 122.94438 | 38139 ft | 423 kts | 225° |
| 2026-05-08 14:08 | 26.95952 | 122.90604 | 38131 ft | 423 kts | 225° |
| 2026-05-08 14:08 | 26.91113 | 122.86762 | 38131 ft | 423 kts | 225° |
| 2026-05-08 14:09 | 26.86309 | 122.82951 | 38129 ft | 423 kts | 225° |
| 2026-05-08 14:09 | 26.81470 | 122.79114 | 38124 ft | 425 kts | 225° |
| 2026-05-08 14:10 | 26.76640 | 122.75291 | 38120 ft | 425 kts | 224° |
| 2026-05-08 14:10 | 26.71819 | 122.71475 | 38111 ft | 426 kts | 224° |
| 2026-05-08 14:11 | 26.66960 | 122.67638 | 38116 ft | 425 kts | 224° |
| 2026-05-08 14:11 | 26.62101 | 122.63802 | 38106 ft | 427 kts | 224° |
| 2026-05-08 14:12 | 26.57251 | 122.59978 | 38111 ft | 425 kts | 224° |
| 2026-05-08 14:12 | 26.52400 | 122.56149 | 38105 ft | 428 kts | 224° |
| 2026-05-08 14:13 | 26.47554 | 122.52337 | 38107 ft | 426 kts | 224° |
| 2026-05-08 14:13 | 26.42685 | 122.48508 | 38105 ft | 427 kts | 224° |
| 2026-05-08 14:14 | 26.37863 | 122.44723 | 37911 ft | 420 kts | 224° |
| 2026-05-08 14:14 | 26.35482 | 122.42863 | 37538 ft | 412 kts | 224° |
| 2026-05-08 14:14 | 26.33132 | 122.41026 | 37156 ft | 408 kts | 224° |
| 2026-05-08 14:14 | 26.30837 | 122.39228 | 36813 ft | 407 kts | 224° |
| 2026-05-08 14:15 | 26.28506 | 122.37397 | 36503 ft | 410 kts | 224° |
| 2026-05-08 14:15 | 26.26144 | 122.35537 | 36209 ft | 414 kts | 224° |
| 2026-05-08 14:15 | 26.23771 | 122.33669 | 35916 ft | 418 kts | 224° |
| 2026-05-08 14:15 | 26.21381 | 122.31792 | 35615 ft | 421 kts | 224° |
| 2026-05-08 14:16 | 26.18988 | 122.29917 | 35306 ft | 422 kts | 224° |
| 2026-05-08 14:16 | 26.16591 | 122.28046 | 34924 ft | 421 kts | 223° |
| 2026-05-08 14:16 | 26.14200 | 122.26180 | 33927 ft | 427 kts | 224° |
| 2026-05-08 14:16 | 26.11750 | 122.24267 | 32615 ft | 439 kts | 223° |
| 2026-05-08 14:17 | 26.09230 | 122.22317 | 31680 ft | 442 kts | 222° |
| 2026-05-08 14:17 | 26.06677 | 122.20365 | 31172 ft | 436 kts | 222° |
| 2026-05-08 14:17 | 26.04208 | 122.18490 | 30688 ft | 433 kts | 221° |
| 2026-05-08 14:17 | 26.01699 | 122.16584 | 30260 ft | 432 kts | 221° |
| 2026-05-08 14:18 | 25.99213 | 122.14693 | 29861 ft | 431 kts | 221° |
| 2026-05-08 14:18 | 25.96745 | 122.12814 | 29424 ft | 434 kts | 221° |
| 2026-05-08 14:18 | 25.94241 | 122.10895 | 28951 ft | 441 kts | 221° |
| 2026-05-08 14:18 | 25.91681 | 122.08937 | 27689 ft | 452 kts | 220° |
| 2026-05-08 14:19 | 25.89108 | 122.06966 | 26483 ft | 459 kts | 219° |
| 2026-05-08 14:19 | 25.86475 | 122.04954 | 25409 ft | 461 kts | 219° |
| 2026-05-08 14:19 | 25.83818 | 122.02932 | 24697 ft | 455 kts | 219° |
| 2026-05-08 14:19 | 25.81268 | 122.00999 | 23942 ft | 438 kts | 218° |
| 2026-05-08 14:20 | 25.78798 | 121.99132 | 23147 ft | 422 kts | 218° |
| 2026-05-08 14:20 | 25.76414 | 121.97328 | 22378 ft | 407 kts | 218° |
| 2026-05-08 14:20 | 25.74115 | 121.95583 | 21096 ft | 408 kts | 218° |
| 2026-05-08 14:20 | 25.71806 | 121.93824 | 20128 ft | 400 kts | 218° |
| 2026-05-08 14:21 | 25.69559 | 121.92100 | 19767 ft | 376 kts | 218° |
| 2026-05-08 14:21 | 25.67452 | 121.90479 | 20003 ft | 363 kts | 219° |
| 2026-05-08 14:21 | 25.65507 | 121.88718 | 20073 ft | 362 kts | 227° |
| 2026-05-08 14:21 | 25.63846 | 121.86658 | 20060 ft | 358 kts | 236° |
| 2026-05-08 14:22 | 25.62429 | 121.84387 | 19853 ft | 358 kts | 240° |
| 2026-05-08 14:22 | 25.61143 | 121.82019 | 19618 ft | 354 kts | 242° |
| 2026-05-08 14:22 | 25.59933 | 121.79648 | 19388 ft | 353 kts | 243° |
| 2026-05-08 14:22 | 25.58743 | 121.77277 | 19157 ft | 352 kts | 243° |
| 2026-05-08 14:23 | 25.57564 | 121.74931 | 18929 ft | 351 kts | 243° |
| 2026-05-08 14:23 | 25.56374 | 121.72561 | 18700 ft | 349 kts | 243° |
| 2026-05-08 14:23 | 25.55192 | 121.70220 | 18465 ft | 348 kts | 243° |
| 2026-05-08 14:23 | 25.54000 | 121.67873 | 18232 ft | 349 kts | 243° |
| 2026-05-08 14:24 | 25.52807 | 121.65540 | 17997 ft | 347 kts | 243° |
| 2026-05-08 14:24 | 25.51619 | 121.63223 | 17764 ft | 346 kts | 243° |
| 2026-05-08 14:24 | 25.50424 | 121.60898 | 17560 ft | 347 kts | 243° |
| 2026-05-08 14:24 | 25.49212 | 121.58605 | 17323 ft | 347 kts | 240° |
| 2026-05-08 14:25 | 25.47833 | 121.56387 | 17085 ft | 344 kts | 235° |
| 2026-05-08 14:25 | 25.46335 | 121.54336 | 16857 ft | 345 kts | 232° |
| 2026-05-08 14:25 | 25.44752 | 121.52319 | 16625 ft | 344 kts | 231° |
| 2026-05-08 14:25 | 25.43163 | 121.50335 | 16395 ft | 343 kts | 231° |
| 2026-05-08 14:26 | 25.41587 | 121.48361 | 16165 ft | 343 kts | 231° |
| 2026-05-08 14:26 | 25.40004 | 121.46363 | 15932 ft | 341 kts | 231° |
| 2026-05-08 14:26 | 25.38447 | 121.44387 | 15693 ft | 341 kts | 231° |
| 2026-05-08 14:26 | 25.36906 | 121.42423 | 15455 ft | 339 kts | 231° |
| 2026-05-08 14:27 | 25.35366 | 121.40475 | 15227 ft | 337 kts | 231° |
| 2026-05-08 14:27 | 25.33817 | 121.38502 | 14991 ft | 338 kts | 232° |
| 2026-05-08 14:27 | 25.32284 | 121.36542 | 14748 ft | 337 kts | 232° |
| 2026-05-08 14:27 | 25.30756 | 121.34583 | 14507 ft | 334 kts | 231° |
| 2026-05-08 14:28 | 25.29235 | 121.32630 | 14271 ft | 334 kts | 230° |
| 2026-05-08 14:28 | 25.27700 | 121.30673 | 14032 ft | 334 kts | 230° |
| 2026-05-08 14:28 | 25.26188 | 121.28745 | 13798 ft | 334 kts | 231° |
| 2026-05-08 14:28 | 25.24674 | 121.26802 | 13560 ft | 332 kts | 231° |
| 2026-05-08 14:29 | 25.23151 | 121.24852 | 13321 ft | 332 kts | 230° |
| 2026-05-08 14:29 | 25.21642 | 121.22926 | 13086 ft | 331 kts | 230° |
| 2026-05-08 14:29 | 25.20135 | 121.21007 | 12849 ft | 330 kts | 230° |
| 2026-05-08 14:29 | 25.18634 | 121.19096 | 12617 ft | 330 kts | 230° |
| 2026-05-08 14:30 | 25.17125 | 121.17175 | 12384 ft | 328 kts | 230° |
| 2026-05-08 14:30 | 25.15635 | 121.15283 | 12111 ft | 318 kts | 230° |
| 2026-05-08 14:30 | 25.14206 | 121.13474 | 11699 ft | 313 kts | 230° |
| 2026-05-08 14:30 | 25.12797 | 121.11682 | 11215 ft | 310 kts | 230° |
| 2026-05-08 14:31 | 25.11384 | 121.09880 | 10727 ft | 308 kts | 230° |
| 2026-05-08 14:31 | 25.10000 | 121.08114 | 10421 ft | 300 kts | 230° |
| 2026-05-08 14:31 | 25.08658 | 121.06404 | 10277 ft | 286 kts | 230° |
| 2026-05-08 14:32 | 25.06169 | 121.03242 | 10007 ft | 263 kts | 230° |
| 2026-05-08 14:32 | 25.04971 | 121.01718 | 9665 ft | 260 kts | 230° |
| 2026-05-08 14:32 | 25.03784 | 121.00209 | 9300 ft | 259 kts | 230° |
| 2026-05-08 14:32 | 25.02606 | 120.98713 | 8961 ft | 257 kts | 230° |
| 2026-05-08 14:33 | 25.01440 | 120.97232 | 8626 ft | 255 kts | 229° |
| 2026-05-08 14:33 | 25.00276 | 120.95757 | 8294 ft | 253 kts | 229° |
| 2026-05-08 14:33 | 24.99121 | 120.94298 | 7956 ft | 251 kts | 229° |
| 2026-05-08 14:33 | 24.97981 | 120.92866 | 7627 ft | 249 kts | 229° |
| 2026-05-08 14:34 | 24.96827 | 120.91417 | 7348 ft | 256 kts | 229° |
| 2026-05-08 14:34 | 24.95622 | 120.89896 | 7105 ft | 265 kts | 229° |
| 2026-05-08 14:34 | 24.94333 | 120.88442 | 6873 ft | 262 kts | 219° |
| 2026-05-08 14:34 | 24.92754 | 120.87528 | 6836 ft | 263 kts | 194° |
| 2026-05-08 14:35 | 24.90888 | 120.87466 | 6806 ft | 268 kts | 171° |
| 2026-05-08 14:35 | 24.89115 | 120.88090 | 6494 ft | 269 kts | 154° |
| 2026-05-08 14:35 | 24.87627 | 120.89329 | 6182 ft | 267 kts | 130° |
| 2026-05-08 14:35 | 24.86753 | 120.91076 | 5937 ft | 265 kts | 108° |
| 2026-05-08 14:36 | 24.86461 | 120.93073 | 5678 ft | 260 kts | 90° |
| 2026-05-08 14:36 | 24.86789 | 120.95008 | 5425 ft | 256 kts | 67° |
| 2026-05-08 14:36 | 24.87737 | 120.96616 | 5180 ft | 250 kts | 51° |
| 2026-05-08 14:36 | 24.88866 | 120.98067 | 4951 ft | 243 kts | 51° |
| 2026-05-08 14:37 | 24.89936 | 120.99458 | 4791 ft | 234 kts | 51° |
| 2026-05-08 14:37 | 24.90993 | 121.00823 | 4490 ft | 231 kts | 51° |
| 2026-05-08 14:37 | 24.92028 | 121.02141 | 4166 ft | 225 kts | 51° |
| 2026-05-08 14:37 | 24.93026 | 121.03404 | 3927 ft | 212 kts | 51° |
| 2026-05-08 14:38 | 24.93927 | 121.04618 | 3783 ft | 194 kts | 55° |
| 2026-05-08 14:38 | 24.94723 | 121.05743 | 3638 ft | 179 kts | 53° |
| 2026-05-08 14:38 | 24.95506 | 121.06754 | 3533 ft | 166 kts | 52° |
| 2026-05-08 14:38 | 24.96249 | 121.07692 | 3492 ft | 165 kts | 52° |
| 2026-05-08 14:39 | 24.97008 | 121.08653 | 3141 ft | 160 kts | 52° |
| 2026-05-08 14:39 | 24.97702 | 121.09524 | 2935 ft | 142 kts | 52° |
| 2026-05-08 14:39 | 24.98333 | 121.10319 | 2761 ft | 136 kts | 52° |
| 2026-05-08 14:39 | 24.98969 | 121.11124 | 2571 ft | 138 kts | 51° |
| 2026-05-08 14:40 | 24.99577 | 121.11887 | 2400 ft | 125 kts | 51° |
| 2026-05-08 14:40 | 25.00143 | 121.12598 | 2237 ft | 124 kts | 51° |
| 2026-05-08 14:40 | 25.00702 | 121.13309 | 2050 ft | 121 kts | 50° |
| 2026-05-08 14:40 | 25.01251 | 121.13999 | 1908 ft | 120 kts | 50° |
| 2026-05-08 14:41 | 25.01803 | 121.14691 | 1742 ft | 119 kts | 50° |
| 2026-05-08 14:41 | 25.02357 | 121.15392 | 1579 ft | 121 kts | 50° |
| 2026-05-08 14:41 | 25.02911 | 121.16093 | 1408 ft | 121 kts | 49° |
| 2026-05-08 14:41 | 25.03473 | 121.16799 | 1259 ft | 123 kts | 49° |
| 2026-05-08 14:42 | 25.04044 | 121.17516 | 1088 ft | 125 kts | 49° |
| 2026-05-08 14:42 | 25.04626 | 121.18233 | 949 ft | 125 kts | 49° |
| 2026-05-08 14:42 | 25.05211 | 121.18936 | 772 ft | 125 kts | 48° |
| 2026-05-08 14:42 | 25.05842 | 121.19741 | 707 ft | 151 kts | 50° |
| 2026-05-08 14:43 | 25.06562 | 121.20641 | 1007 ft | 170 kts | 48° |
| 2026-05-08 14:43 | 25.07352 | 121.21587 | 2123 ft | 166 kts | 48° |
| 2026-05-08 14:43 | 25.08175 | 121.22407 | 2931 ft | 165 kts | 35° |
| 2026-05-08 14:43 | 25.09300 | 121.22879 | 2990 ft | 188 kts | 24° |
| 2026-05-08 14:44 | 25.10730 | 121.22951 | 2956 ft | 226 kts | 350° |
| 2026-05-08 14:44 | 25.12079 | 121.21897 | 2994 ft | 252 kts | 310° |
| 2026-05-08 14:44 | 25.12629 | 121.20043 | 3368 ft | 266 kts | 278° |
| 2026-05-08 14:44 | 25.12706 | 121.18015 | 3770 ft | 267 kts | 274° |
| 2026-05-08 14:45 | 25.12851 | 121.15962 | 3974 ft | 266 kts | 279° |
| 2026-05-08 14:45 | 25.13028 | 121.13924 | 3851 ft | 265 kts | 268° |
| 2026-05-08 14:45 | 25.12461 | 121.12055 | 3609 ft | 259 kts | 236° |
| 2026-05-08 14:45 | 25.11332 | 121.10551 | 3363 ft | 250 kts | 224° |
| 2026-05-08 14:46 | 25.10152 | 121.09151 | 3172 ft | 246 kts | 226° |
| 2026-05-08 14:46 | 25.09007 | 121.07626 | 3242 ft | 269 kts | 229° |
| 2026-05-08 14:46 | 25.07871 | 121.06014 | 3218 ft | 255 kts | 230° |
| 2026-05-08 14:46 | 25.06825 | 121.04524 | 3219 ft | 244 kts | 230° |
| 2026-05-08 14:47 | 25.05767 | 121.03051 | 3216 ft | 235 kts | 226° |
| 2026-05-08 14:47 | 25.04612 | 121.01878 | 3222 ft | 213 kts | 204° |
| 2026-05-08 14:47 | 25.03315 | 121.01395 | 3219 ft | 188 kts | 177° |
| 2026-05-08 14:47 | 25.02037 | 121.01372 | 3221 ft | 179 kts | 165° |
| 2026-05-08 14:48 | 25.00787 | 121.01656 | 3250 ft | 195 kts | 148° |
| 2026-05-08 14:48 | 24.99569 | 121.02486 | 3226 ft | 206 kts | 131° |
| 2026-05-08 14:48 | 24.98558 | 121.03532 | 3213 ft | 191 kts | 127° |
| 2026-05-08 14:48 | 24.97652 | 121.04497 | 3213 ft | 176 kts | 127° |
| 2026-05-08 14:49 | 24.96863 | 121.05477 | 3199 ft | 155 kts | 111° |
| 2026-05-08 14:49 | 24.96580 | 121.06542 | 3214 ft | 140 kts | 87° |
| 2026-05-08 14:49 | 24.96755 | 121.07610 | 3230 ft | 141 kts | 69° |
| 2026-05-08 14:49 | 24.97183 | 121.08560 | 3139 ft | 137 kts | 60° |
| 2026-05-08 14:50 | 24.97709 | 121.09404 | 2962 ft | 131 kts | 55° |
| 2026-05-08 14:50 | 24.98272 | 121.10181 | 2786 ft | 128 kts | 52° |
| 2026-05-08 14:50 | 24.98837 | 121.10921 | 2693 ft | 126 kts | 52° |
| 2026-05-08 14:50 | 24.99403 | 121.11649 | 2440 ft | 121 kts | 51° |
| 2026-05-08 14:51 | 24.99952 | 121.12344 | 2280 ft | 118 kts | 50° |
| 2026-05-08 14:51 | 25.00508 | 121.13041 | 2136 ft | 122 kts | 51° |
| 2026-05-08 14:51 | 25.01054 | 121.13734 | 1948 ft | 118 kts | 50° |
| 2026-05-08 14:51 | 25.01596 | 121.14426 | 1798 ft | 118 kts | 50° |
| 2026-05-08 14:52 | 25.02136 | 121.15102 | 1639 ft | 117 kts | 50° |
| 2026-05-08 14:52 | 25.03239 | 121.16499 | 1321 ft | 121 kts | 49° |
| 2026-05-08 14:52 | 25.03800 | 121.17205 | 1162 ft | 123 kts | 48° |
| 2026-05-08 14:53 | 25.04372 | 121.17924 | 982 ft | 125 kts | 50° |
| 2026-05-08 14:53 | 25.04949 | 121.18645 | 801 ft | 125 kts | 49° |
| 2026-05-08 14:53 | 25.05524 | 121.19360 | 639 ft | 123 kts | 48° |
| 2026-05-08 14:53 | 25.06093 | 121.20071 | 503 ft | 125 kts | 49° |
| 2026-05-08 14:54 | 25.06671 | 121.20804 | 358 ft | 127 kts | 49° |
| 2026-05-08 14:54 | 25.07247 | 121.21546 | 204 ft | 129 kts | 49° |
| 2026-05-08 14:54 | 25.07827 | 121.22280 | 117 ft | 118 kts | 49° |
| 2026-05-08 14:54 | 25.08282 | 121.22858 | 115 ft | 74 kts | 49° |
| 2026-05-08 14:55 | 25.08541 | 121.23188 | 115 ft | 47 kts | 50° |
| 2026-05-08 14:55 | 25.08696 | 121.23470 | 115 ft | 40 kts | 76° |
| 2026-05-08 14:55 | 25.08713 | 121.23633 | 115 ft | 11 kts | 118° |
| 2026-05-08 14:55 | 25.08649 | 121.23652 | 115 ft | 10 kts | 206° |
| 2026-05-08 14:56 | 25.08604 | 121.23595 | 115 ft | 9 kts | 231° |
| 2026-05-08 14:56 | 25.08559 | 121.23537 | 115 ft | 9 kts | 230° |
| 2026-05-08 14:56 | 25.08517 | 121.23483 | 115 ft | 9 kts | 230° |
| 2026-05-08 14:56 | 25.08461 | 121.23461 | 115 ft | 8 kts | 156° |
| 2026-05-08 14:57 | 25.08412 | 121.23485 | 115 ft | 7 kts | 191° |
| 2026-05-08 14:57 | 25.08363 | 121.23459 | 115 ft | 7 kts | 199° |
| 2026-05-08 14:57 | 25.08310 | 121.23468 | 115 ft | 7 kts | 143° |
| 2026-05-08 14:57 | 25.08276 | 121.23501 | 115 ft | 5 kts | 139° |
| 2026-05-08 14:58 | 25.08250 | 121.23525 | 115 ft | 3 kts | 138° |
| 2026-05-08 14:58 | 25.08242 | 121.23533 | 115 ft | 0 kts | 139° |